Latest Coastal Weather Observations for Bellambi

IDN60701

Issued at 11:51 pm EST Monday 25 July 2016 (issued every 10 minutes, with the page automatically refreshed every 10 minutes)

About coastal observations | Map of coastal stations | Coastal observations for NSW | Marine services | Other Formats
Station Details ID: 068228 Name: BELLAMBI AWS Lat: -34.37 Lon: 150.93 Height: 10.0 m
Data from the previous 72 hours. | See also: Recent months at Bellambi
Date/Time
EST
Temp
°C
Wind Pressure Rain since
9am
mm
Weather Cloud Vis
km
Sea
Height
m
Swell
Dir  Spd
kts
Gust
kts
hPa Trend Height
m
Period
s
Dir
25/11:30pm 10.8 NW 5 9 - - 0.0 - - - - - - -
25/11:00pm 11.4 N 5 9 - - 0.0 - - - - - - -
25/10:30pm 11.4 NNE 6 11 - - 0.0 - - - - - - -
25/10:00pm 11.4 N 3 9 - - 0.0 - - - - - - -
25/09:30pm 11.2 NW 5 9 - - 0.0 - - - - - - -
25/09:00pm 11.8 NW 6 13 - - 0.0 - - - - - - -
25/08:30pm 11.9 NW 4 7 - - 0.0 - - - - - - -
25/08:00pm 12.3 N 6 9 - - 0.0 - - - - - - -
25/07:30pm 12.9 NNW 7 11 - - 0.0 - - - - - - -
25/07:00pm 12.7 NNW 10 15 - - 0.0 - - - - - - -
25/06:30pm 12.6 NW 9 16 - - 0.0 - - - - - - -
25/06:00pm 13.0 NW 9 15 - - 0.0 - - - - - - -
25/05:30pm 12.8 W 7 15 - - 0.0 - - - - - - -
25/05:00pm 13.3 WNW 7 20 - - 0.0 - - - - - - -
25/04:30pm 14.4 SSW 4 7 - - 0.0 - - - - - - -
25/04:00pm 15.3 WNW 7 12 - - 0.0 - - - - - - -
25/03:30pm 15.6 SE 4 7 - - 0.0 - - - - - - -
25/03:00pm 15.8 W 8 19 - - 0.0 - - - - - - -
25/02:35pm 16.0 NW 15 25 - - 0.0 - - - - - - -
25/02:30pm 16.0 NW 15 23 - - 0.0 - - - - - - -
25/02:00pm 16.1 WNW 9 18 - - 0.0 - - - - - - -
25/01:30pm 16.5 W 7 15 - - 0.0 - - - - - - -
25/01:00pm 15.8 W 16 26 - - 0.0 - - - - - - -
25/12:30pm 15.2 WSW 16 26 - - 0.0 - - - - - - -
25/12:27pm 15.0 WSW 15 26 - - 0.0 - - - - - - -
25/12:00pm 15.0 W 15 24 - - 0.0 - - - - - - -
25/11:30am 15.0 W 13 19 - - 0.0 - - - - - - -
25/11:00am 14.7 W 14 24 - - 0.0 - - - - - - -
25/10:30am 14.3 W 13 21 - - 0.0 - Partly cloudy - - - - -
25/10:23am 13.9 W 15 27 - - 0.0 - Partly cloudy - - - - -
25/10:19am 14.1 W 13 27 - - 0.0 - Partly cloudy - - - - -
25/10:00am 14.2 W 8 16 - - 0.0 - Partly cloudy - - - - -
25/09:30am 13.6 WSW 8 15 - - 0.0 - Partly cloudy - - - - -
25/09:00am 12.9 WSW 6 12 - - 0.0 - - - - - - -
25/08:45am 12.3 WNW 12 23 - - 0.0 - - - - - - -
25/08:30am 11.9 NW 23 36 - - 0.0 - - - - - - -
25/08:02am 11.5 NW 17 27 - - 0.0 - - - - - - -
25/08:00am 11.5 NW 16 24 - - 0.0 - - - - - - -
25/07:30am 10.6 WNW 10 16 - - 0.0 - - - - - - -
25/07:00am 10.2 NW 9 13 - - 0.0 - - - - - - -
25/06:30am 10.4 WNW 11 17 - - 0.0 - - - - - - -
25/06:00am 10.1 WNW 8 16 - - 0.0 - - - - - - -
25/05:30am 10.4 WNW 13 19 - - 0.0 - - - - - - -
25/05:00am 10.3 WNW 13 21 - - 0.0 - - - - - - -
25/04:36am 10.5 WNW 15 26 - - 0.0 - - - - - - -
25/04:30am 10.2 WNW 12 20 - - 0.0 - - - - - - -
25/04:00am 10.1 W 6 14 - - 0.0 - - - - - - -
25/03:30am 10.4 WNW 15 26 - - 0.0 - - - - - - -
25/03:08am 10.5 WNW 18 28 - - 0.0 - - - - - - -
25/03:00am 10.5 WNW 17 25 - - 0.0 - - - - - - -
25/02:30am 10.9 NW 22 32 - - 0.0 - - - - - - -
25/02:20am 10.9 NW 19 29 - - 0.0 - - - - - - -
25/02:00am 11.1 NW 14 22 - - 0.0 - - - - - - -
25/01:30am 11.2 NW 13 19 - - 0.0 - - - - - - -
25/01:00am 11.0 NW 7 12 - - 0.0 - - - - - - -
25/12:30am 8.8 WSW 3 6 - - 0.0 - - - - - - -
25/12:00am 8.7 CALM 0 5 - - 0.0 - - - - - - -
 
Date/Time
EST
Temp
°C
Wind Pressure Rain since
9am
mm
Weather Cloud Vis
km
Sea
Height
m
Swell
Dir  Spd
kts
Gust
kts
hPa Trend Height
m
Period
s
Dir
24/11:30pm 9.7 NW 2 3 - - 0.0 - - - - - - -
24/11:00pm 10.3 SSW 2 4 - - 0.0 - - - - - - -
24/10:30pm 10.2 NW 4 6 - - 0.0 - - - - - - -
24/10:00pm 10.2 NNE 9 12 - - 0.0 - - - - - - -
24/09:30pm 10.2 ESE 4 11 - - 0.0 - - - - - - -
24/09:00pm 9.0 NW 5 7 - - 0.0 - - - - - - -
24/08:30pm 10.4 NNW 11 13 - - 0.0 - - - - - - -
24/08:00pm 9.4 NW 6 7 - - 0.0 - Partly cloudy - - - - -
24/07:30pm 9.3 WNW 4 5 - - 0.0 - Cloudy - - - - -
24/07:00pm 9.1 NW 6 7 - - 0.0 - Partly cloudy - - - - -
24/06:30pm 8.9 WNW 5 6 - - 0.0 - Partly cloudy - - - - -
24/06:00pm 9.2 NW 4 6 - - 0.0 - - - - - - -
24/05:30pm 10.6 NW 4 5 - - 0.0 - - - - - - -
24/05:00pm 11.7 NW 5 7 - - 0.0 - - - - - - -
24/04:30pm 13.5 W 2 6 - - 0.0 - - - - - - -
24/04:00pm 13.8 WNW 5 7 - - 0.0 - Partly cloudy - - - - -
24/03:30pm 14.2 W 7 9 - - 0.0 - Partly cloudy - - - - -
24/03:00pm 13.7 W 12 17 - - 0.0 - - - - - - -
24/02:30pm 13.8 W 9 13 - - 0.0 - - - - - - -
24/02:00pm 14.2 W 9 13 - - 0.0 - - - - - - -
24/01:30pm 14.0 W 11 16 - - 0.0 - - - - - - -
24/01:00pm 14.2 WSW 9 14 - - 0.0 - - - - - - -
24/12:30pm 14.1 W 8 12 - - 0.0 - - - - - - -
24/12:00pm 13.8 WSW 9 13 - - 0.0 - - - - - - -
24/11:30am 13.2 W 10 15 - - 0.0 - - - - - - -
24/11:00am 13.6 W 8 11 - - 0.0 - - - - - - -
24/10:30am 12.9 WSW 9 13 - - 0.0 - - - - - - -
24/10:00am 12.4 W 9 14 - - 0.0 - - - - - - -
24/09:30am 10.9 W 6 10 - - 0.0 - - - - - - -
24/09:00am 10.2 W 9 14 - - 0.0 - Partly cloudy - - - - -
24/08:30am 9.7 W 5 7 - - 0.0 - - - - - - -
24/08:00am 8.6 W 7 11 - - 0.0 - - - - - - -
24/07:30am 8.2 WSW 8 12 - - 0.0 - - - - - - -
24/07:00am 7.9 WSW 10 13 - - 0.0 - - - - - - -
24/06:30am 8.0 W 9 14 - - 0.0 - - - - - - -
24/06:00am 8.2 W 9 14 - - 0.0 - - - - - - -
24/05:30am 8.0 W 9 14 - - 0.0 - - - - - - -
24/05:00am 7.7 W 8 14 - - 0.0 - - - - - - -
24/04:30am 7.8 SW 9 14 - - 0.0 - - - - - - -
24/04:00am 8.2 W 11 18 - - 0.0 - - - - - - -
24/03:30am 8.3 WSW 9 16 - - 0.0 - - - - - - -
24/03:00am 8.1 SW 8 17 - - 0.0 - - - - - - -
24/02:30am 8.2 SW 9 13 - - 0.0 - - - - - - -
24/02:00am 8.4 SW 9 15 - - 0.0 - - - - - - -
24/01:30am 8.7 WNW 8 13 - - 0.0 - - - - - - -
24/01:00am 9.2 W 9 13 - - 0.0 - - - - - - -
24/12:30am 9.4 W 11 18 - - 0.0 - - - - - - -
24/12:00am 9.6 WSW 8 13 - - 0.0 - Mostly cloudy - - - - -
 
Date/Time
EST
Temp
°C
Wind Pressure Rain since
9am
mm
Weather Cloud Vis
km
Sea
Height
m
Swell
Dir  Spd
kts
Gust
kts
hPa Trend Height
m
Period
s
Dir
23/11:30pm 9.7 W 7 10 - - 0.0 - Partly cloudy - - - - -
23/11:00pm 10.0 WSW 10 14 - - 0.0 - - - - - - -
23/10:30pm 10.3 WSW 12 21 - - 0.0 - Partly cloudy - - - - -
23/10:00pm 10.4 WSW 11 15 - - 0.0 - Partly cloudy - - - - -
23/09:30pm 10.5 WSW 10 19 - - 0.0 - Partly cloudy - - - - -
23/09:00pm 10.7 WSW 9 15 - - 0.0 - - - - - - -
23/08:30pm 11.0 SW 9 15 - - 0.0 - - - - - - -
23/08:00pm 11.3 WSW 14 24 - - 0.0 - - - - - - -
23/07:30pm 11.4 WSW 14 27 - - 0.0 - - - - - - -
23/07:16pm 11.7 WSW 15 26 - - 0.0 - - - - - - -
23/07:00pm 11.6 WSW 12 27 - - 0.0 - - - - - - -
23/06:57pm 11.7 WSW 12 27 - - 0.0 - - - - - - -
23/06:56pm 11.7 WSW 13 27 - - 0.0 - - - - - - -
23/06:30pm 11.8 WSW 10 16 - - 0.0 - - - - - - -
23/06:00pm 11.8 WSW 5 14 - - 0.0 - - - - - - -
23/05:30pm 12.5 W 3 9 - - 0.0 - - - - - - -
23/05:00pm 13.3 W 10 20 - - 0.0 - - - - - - -
23/04:30pm 14.4 W 13 24 - - 0.0 - - - - - - -
23/04:11pm 14.7 W 15 26 - - 0.0 - - - - - - -
23/04:00pm 14.9 WSW 14 24 - - 0.0 - - - - - - -
23/03:30pm 15.2 W 15 25 - - 0.0 - - - - - - -
23/03:00pm 15.4 W 17 29 - - 0.0 - - - - - - -
23/02:30pm 15.7 W 20 33 - - 0.0 - - - - - - -
23/02:12pm 15.8 W 17 36 - - 0.0 - - - - - - -
23/02:10pm 15.7 W 15 36 - - 0.0 - Partly cloudy - - - - -
23/02:00pm 16.1 W 18 34 - - 0.0 - Partly cloudy - - - - -
23/01:30pm 15.9 WNW 15 32 - - 0.0 - Partly cloudy - - - - -
23/01:10pm 15.7 W 15 32 - - 0.0 - Partly cloudy - - - - -
23/01:00pm 15.6 WNW 14 36 - - 0.0 - Partly cloudy - - - - -
23/12:52pm 15.5 W 18 36 - - 0.0 - Partly cloudy - - - - -
23/12:43pm 15.5 W 14 25 - - 0.0 - Partly cloudy - - - - -
23/12:30pm 15.6 WNW 13 22 - - 0.0 - Partly cloudy - - - - -
23/12:05pm 15.4 W 15 26 - - 0.0 - Partly cloudy - - - - -
23/12:00pm 15.2 W 11 26 - - 0.0 - Mostly clear - - - - -
23/11:30am 15.5 W 10 19 - - 0.0 - Partly cloudy - - - - -
23/11:04am 15.0 WSW 11 27 - - 0.0 - - - - - - -
23/11:00am 15.2 WSW 10 24 - - 0.0 - - - - - - -
23/10:30am 14.6 W 12 19 - - 0.0 - - - - - - -
23/10:00am 14.0 W 19 36 - - 0.0 - - - - - - -
23/09:30am 13.8 W 17 35 - - 0.0 - - - - - - -
23/09:00am 13.6 W 16 36 - - 9.2 - - - - - - -
23/08:30am 13.3 W 18 30 - - 9.2 - - - - - - -
23/08:00am 12.8 W 17 32 - - 9.2 - - - - - - -
23/07:30am 13.4 W 20 31 - - 9.2 - - - - - - -
23/07:00am 13.6 W 17 27 - - 9.2 - - - - - - -
23/06:30am 14.4 W 22 34 - - 9.2 - - - - - - -
23/06:05am 14.4 W 15 30 - - 9.2 - - - - - - -
23/06:00am 14.3 W 13 22 - - 9.2 - - - - - - -
23/05:30am 14.5 W 17 29 - - 9.2 - - - - - - -
23/05:05am 14.5 W 15 26 - - 9.2 - - - - - - -
23/05:00am 14.4 WNW 15 25 - - 9.2 - - - - - - -
23/04:30am 15.0 W 23 35 - - 9.2 - - - - - - -
23/04:18am 15.2 W 18 30 - - 9.2 - Partly cloudy - - - - -
23/04:17am 15.2 W 18 30 - - 9.2 - Partly cloudy - - - - -
23/04:08am 15.9 WSW 11 27 - - 9.2 - - - - - - -
23/04:00am 16.4 W 9 15 - - 9.2 - - - - - - -
23/03:30am 16.8 W 10 21 - - 9.2 - - - - - - -
23/03:00am 17.1 WNW 9 17 - - 9.2 - - - - - - -
23/02:33am 17.8 WNW 12 25 - - 9.2 - - - - - - -
23/02:30am 17.6 WNW 9 25 - - 9.2 - - - - - - -
23/02:00am 17.6 WNW 6 11 - - 9.2 - - - - - - -
23/01:30am 18.1 N 8 13 - - 9.2 - - - - - - -
23/01:00am 17.7 WNW 8 12 - - 9.2 - - - - - - -
23/12:30am 18.2 WNW 13 21 - - 9.2 - - - - - - -
23/12:02am 18.3 WNW 19 31 - - 9.2 - Partly cloudy - - - - -
23/12:00am 18.5 WNW 18 27 - - 9.2 Recent precip. Cloudy - - - - -

Other Formats:

Comma delimited format used in spreadsheet applications
http://www.bom.gov.au/fwo/IDN60701/IDN60701.94749.axf

JavaScript Object Notation format (JSON) in row-major order
http://www.bom.gov.au/fwo/IDN60701/IDN60701.94749.json